Airport Name : Ouagadougou

Other Name : Ouagadougou

ICAO : DFFD

IATA : OUA

FAA :

Latitude : 12.353194

Longitude : -1.512417

Country : Burkina Faso

Local Date and Time : 07 Dec 2022 19:53

 

TAF (Terminal Aerodrome Forecast)

TAF DFFD 071700Z 0718/0824 06008KT 4000 DU NSC BECMG 0720/0722 6000 NSW BECMG 0805/0807 4000 DU TEMPO 0807/0812 2500 DU

 

METAR (METeorological Aerodrome Report)

DFFD 071900Z 08003KT 4000 DU NSC 29/05 Q1011 NOSIG

DFFD 071800Z 06005KT 4000 DU NSC 31/04 Q1010 NOSIG

DFFD 071700Z 06010KT 3500 DU NSC 34/03 Q1010 NOSIG

DFFD 071600Z 06011KT 3500 DU NSC 35/02 Q1009 NOSIG

To Charter a Jet Click here.